Terminal Aerodrome Forecast
Issued by NWS Blacksburg, VA

Current Version | Previous Version | Graphics & Text | Print | Product List | Glossary On
Versions: 1 2 3 4 5 6 7 8 9 10 11 12 13 14 15 16 17 18 19 20 21 22 23 24 25 26 27 28 29 30
000
FTUS41 KRNK 211720
TAFBLF
TAF
KBLF 211720Z 2118/2218 29008KT P6SM VCTS BKN045CB
      TEMPO 2119/2122 28015G25KT 3SM TSRA OVC040CB
     FM212300 25004KT P6SM VCSH SCT060 BKN100
     FM220300 24004KT P6SM SCT035 BKN080
     FM221200 26006KT P6SM VCSH SCT015 BKN035=

USA.gov is the U.S. government's official web portal to all federal, state and local government web resources and services.